Strona główna
METAR-TAF:

METAR-TAF

Lotnisko :

Sullivan County International Airport

Monticello, Nowy Jork, Stany Zjednoczone

Szerokość geograficzna: 41-42N, Długość geograficzna: 074-48W, wysokość: 428 m

Aktualna obserwacja pogody

Raport powstał 56 minut temu, godzina 16:56 UTC
Wiatr 3 kt z kierunków zmiennych
Temperatura 25°C
Wilgotność 41%
Ciśnienie 1014 hPa
Widzialność: 16.1 km
bezchmurnie

METAR: KMSV 241656Z AUTO VRB03KT 10SM CLR 25/11 A2993 RMK AO2 SLP129 T02500106

czas: 13:52 (17:52 UTC)


TAF: brakujący

Obserwacja i prognoza pogody dla ponad 4000 lotnisk (raport METAR i TAF).

Dostępne stacje oznaczono żółtymi i czerwonymi punktami na mapie.

Najedź kursorem aby zobaczyć nazwę stacji.

Kliknij aby zobaczyć obserwacje i prognozy pogody.

Aby zmienić mapę: kliknij na zielony przycisk z czarnym krzyżykiem, aby powiększyć; na zielony przycisk z myślnikiem, aby pomniejszyć; na zielone strzałki, aby przejść do map sąsiednich.


METAR-TAF: